createdAt,value
2023-01-26T00:01:15.873Z,122.22
2023-01-26T00:03:43.093Z,122.15
2023-01-26T00:06:11.767Z,130.38
2023-01-26T00:08:43.418Z,122.47
2023-01-26T00:11:12.184Z,114.35
2023-01-26T00:13:39.018Z,121.50
2023-01-26T00:16:09.157Z,116.85
2023-01-26T00:18:37.625Z,118.57
2023-01-26T00:21:04.650Z,125.63
2023-01-26T00:23:33.128Z,120.22
2023-01-26T00:26:00.097Z,125.72
2023-01-26T00:28:28.105Z,120.68
2023-01-26T00:31:00.117Z,118.65
2023-01-26T00:33:26.740Z,122.38
2023-01-26T00:35:56.493Z,105.07
2023-01-26T00:38:23.146Z,118.47
2023-01-26T00:40:49.746Z,118.65
2023-01-26T00:43:16.561Z,137.43
2023-01-26T00:45:43.842Z,122.10
2023-01-26T00:48:10.493Z,122.15
2023-01-26T00:50:37.051Z,133.07
2023-01-26T00:53:03.705Z,121.15
2023-01-26T00:55:33.027Z,125.13
2023-01-26T00:58:03.894Z,109.15
2023-01-26T01:00:31.311Z,113.28
2023-01-26T01:02:58.890Z,115.33
2023-01-26T01:05:27.462Z,130.18
2023-01-26T01:07:54.158Z,120.72
2023-01-26T01:10:20.788Z,118.30
2023-01-26T01:12:47.352Z,120.90
2023-01-26T01:15:13.980Z,109.47
2023-01-26T01:17:40.610Z,125.75
2023-01-26T01:20:10.535Z,112.50
2023-01-26T01:22:37.466Z,120.47
2023-01-26T01:25:04.915Z,125.28
2023-01-26T01:27:31.651Z,120.20
2023-01-26T01:29:58.487Z,135.88
2023-01-26T01:32:25.143Z,136.15
2023-01-26T01:34:51.731Z,131.25
2023-01-26T01:37:18.553Z,121.75
2023-01-26T01:39:45.211Z,122.45
2023-01-26T01:42:11.792Z,130.52
2023-01-26T01:44:38.732Z,124.90
2023-01-26T01:47:18.509Z,122.93
2023-01-26T01:49:48.353Z,131.73
2023-01-26T01:52:29.904Z,128.70
2023-01-26T01:55:08.286Z,124.38
2023-01-26T01:57:45.091Z,114.72
2023-01-26T02:00:19.089Z,121.43
2023-01-26T02:03:07.094Z,131.70
2023-01-26T02:08:02.004Z,116.20
2023-01-26T02:10:29.047Z,111.82
2023-01-26T02:12:56.828Z,126.88
2023-01-26T02:15:23.614Z,134.48
2023-01-26T02:17:52.558Z,130.27
2023-01-26T02:20:19.107Z,131.68
2023-01-26T02:23:26.687Z,125.05
2023-01-26T02:25:53.425Z,131.38
2023-01-26T02:28:22.806Z,123.47
2023-01-26T02:30:49.893Z,111.88
2023-01-26T02:33:28.453Z,125.75
2023-01-26T02:35:55.451Z,140.65
2023-01-26T02:38:22.991Z,154.75
2023-01-26T02:41:03.516Z,140.13
2023-01-26T02:43:30.289Z,122.22
2023-01-26T02:45:56.934Z,141.15
2023-01-26T02:48:42.127Z,148.80
2023-01-26T02:51:08.708Z,137.00
2023-01-26T02:53:35.273Z,141.55
2023-01-26T02:56:02.030Z,150.23
2023-01-26T02:58:28.901Z,157.48
2023-01-26T03:00:55.532Z,146.50
2023-01-26T03:03:41.691Z,155.57
2023-01-26T03:06:13.155Z,155.25
2023-01-26T03:08:40.025Z,148.25
2023-01-26T03:11:07.972Z,159.55
2023-01-26T03:13:35.223Z,155.07
2023-01-26T03:16:07.069Z,153.35
2023-01-26T03:18:53.481Z,139.90
2023-01-26T03:21:38.827Z,146.45
2023-01-26T03:24:24.564Z,144.30
2023-01-26T03:27:09.689Z,143.93
2023-01-26T03:29:36.315Z,162.13
2023-01-26T03:32:02.978Z,139.82
2023-01-26T03:34:29.703Z,154.38
2023-01-26T03:36:56.369Z,157.77
2023-01-26T03:39:41.237Z,149.70
2023-01-26T03:42:26.128Z,156.35
2023-01-26T03:45:11.348Z,137.90
2023-01-26T03:47:57.699Z,146.70
2023-01-26T03:50:43.053Z,151.85
2023-01-26T03:53:36.562Z,154.65
2023-01-26T03:56:23.266Z,154.32
2023-01-26T03:58:55.361Z,151.20
2023-01-26T04:01:28.162Z,157.35
2023-01-26T04:04:15.540Z,158.13
2023-01-26T04:07:02.179Z,157.45
2023-01-26T04:09:28.946Z,149.68
2023-01-26T04:11:55.660Z,157.85
2023-01-26T04:14:50.045Z,155.13
2023-01-26T04:17:37.311Z,135.20
2023-01-26T04:20:24.708Z,138.02
2023-01-26T04:22:51.574Z,135.20
2023-01-26T04:25:20.412Z,136.43
2023-01-26T04:27:47.058Z,119.93
2023-01-26T04:30:15.964Z,114.97
2023-01-26T04:32:42.679Z,135.68
2023-01-26T04:35:10.218Z,129.25
2023-01-26T04:37:37.241Z,127.20
2023-01-26T04:40:04.464Z,129.65
2023-01-26T04:42:31.115Z,130.32
2023-01-26T04:44:57.752Z,123.20
2023-01-26T04:47:24.404Z,132.45
2023-01-26T04:49:50.962Z,130.35
2023-01-26T04:52:17.529Z,133.43
2023-01-26T04:54:44.102Z,136.20
2023-01-26T04:57:11.353Z,138.70
2023-01-26T04:59:38.210Z,125.78
2023-01-26T05:02:04.885Z,130.43
2023-01-26T05:04:31.849Z,150.55
2023-01-26T05:06:58.561Z,124.75
2023-01-26T05:09:25.122Z,143.75
2023-01-26T05:11:51.715Z,137.15
2023-01-26T05:14:18.255Z,138.88
2023-01-26T05:16:44.880Z,140.50
2023-01-26T05:19:11.557Z,148.27
2023-01-26T05:21:38.090Z,124.95
2023-01-26T05:24:04.938Z,122.18
2023-01-26T05:26:31.539Z,132.10
2023-01-26T05:28:58.134Z,146.38
2023-01-26T05:31:24.909Z,137.75
2023-01-26T05:33:51.494Z,145.48
2023-01-26T05:36:18.048Z,136.02
2023-01-26T05:38:44.619Z,131.00
2023-01-26T05:41:11.168Z,135.70
2023-01-26T05:43:37.719Z,134.75
2023-01-26T05:46:04.425Z,133.48
2023-01-26T05:48:31.011Z,123.22
2023-01-26T05:50:58.186Z,137.93
2023-01-26T05:53:24.867Z,132.35
2023-01-26T05:55:51.519Z,144.00
2023-01-26T05:58:18.112Z,131.90
2023-01-26T06:00:44.691Z,132.90
2023-01-26T06:03:11.277Z,119.22
2023-01-26T06:05:38.908Z,126.03
2023-01-26T06:08:05.832Z,120.00
2023-01-26T06:10:32.411Z,119.38
2023-01-26T06:13:00.374Z,129.00
2023-01-26T06:15:26.988Z,124.72
2023-01-26T06:17:53.566Z,114.78
2023-01-26T06:20:20.161Z,122.78
2023-01-26T06:22:46.750Z,119.07
2023-01-26T06:25:13.336Z,133.07
2023-01-26T06:27:42.456Z,125.30
2023-01-26T06:30:10.711Z,121.45
2023-01-26T06:35:08.398Z,127.82
2023-01-26T06:37:35.294Z,125.60
2023-01-26T06:40:01.943Z,111.75
2023-01-26T06:42:28.543Z,129.15
2023-01-26T06:44:57.477Z,133.68
2023-01-26T06:47:24.125Z,130.82
2023-01-26T06:49:50.786Z,116.65
2023-01-26T06:52:31.159Z,120.63
2023-01-26T06:54:59.189Z,119.07
2023-01-26T06:57:25.995Z,111.60
2023-01-26T06:59:52.623Z,119.90
2023-01-26T07:02:20.775Z,118.70
2023-01-26T07:04:48.222Z,112.38
2023-01-26T07:07:15.163Z,119.07
2023-01-26T07:09:41.831Z,113.47
2023-01-26T07:12:08.416Z,115.80
2023-01-26T07:14:35.112Z,117.43
2023-01-26T07:17:02.655Z,108.00
2023-01-26T07:19:31.354Z,106.55
2023-01-26T07:21:58.111Z,128.77
2023-01-26T07:24:25.215Z,122.60
2023-01-26T07:26:52.252Z,106.85
2023-01-26T07:29:18.906Z,112.97
2023-01-26T07:31:45.825Z,109.65
2023-01-26T07:34:12.896Z,112.18
2023-01-26T07:36:39.576Z,108.13
2023-01-26T07:39:08.345Z,106.07
2023-01-26T07:41:35.507Z,109.28
2023-01-26T07:44:02.207Z,102.65
2023-01-26T07:46:28.960Z,110.60
2023-01-26T07:48:57.382Z,112.57
2023-01-26T07:51:24.004Z,106.30
2023-01-26T07:53:50.600Z,99.30
2023-01-26T07:56:20.289Z,103.88
2023-01-26T07:58:51.533Z,114.53
2023-01-26T08:01:18.679Z,105.22
2023-01-26T08:03:45.649Z,105.63
2023-01-26T08:06:14.359Z,108.28
2023-01-26T08:08:43.143Z,103.75
2023-01-26T08:11:11.152Z,115.68
2023-01-26T08:13:38.326Z,115.65
2023-01-26T08:16:09.362Z,116.65
2023-01-26T08:18:36.108Z,114.45
2023-01-26T08:21:02.722Z,110.72
2023-01-26T08:23:29.373Z,100.80
2023-01-26T08:26:00.364Z,100.65
2023-01-26T08:28:26.946Z,109.15
2023-01-26T08:30:53.617Z,114.15
2023-01-26T08:33:20.209Z,107.38
2023-01-26T08:35:46.795Z,100.22
2023-01-26T08:38:13.377Z,95.13
2023-01-26T08:40:40.015Z,94.43
2023-01-26T08:43:06.726Z,95.38
2023-01-26T08:45:33.404Z,97.38
2023-01-26T08:48:00.166Z,94.40
2023-01-26T08:50:26.771Z,90.45
2023-01-26T08:52:55.925Z,89.63
2023-01-26T08:55:22.740Z,89.28
2023-01-26T08:57:52.559Z,79.53
2023-01-26T09:00:19.413Z,84.05
2023-01-26T09:02:46.145Z,81.43
2023-01-26T09:05:12.949Z,89.13
2023-01-26T09:07:39.532Z,80.75
2023-01-26T09:10:10.871Z,96.32
2023-01-26T09:12:40.126Z,84.15
2023-01-26T09:15:08.649Z,88.18
2023-01-26T09:17:35.490Z,79.30
2023-01-26T09:20:02.156Z,76.65
2023-01-26T09:22:28.777Z,85.63
2023-01-26T09:24:55.372Z,77.70
2023-01-26T09:27:21.976Z,75.20
2023-01-26T09:29:48.556Z,77.68
2023-01-26T09:32:15.295Z,69.40
2023-01-26T09:34:44.158Z,65.47
2023-01-26T09:37:12.054Z,68.00
2023-01-26T09:39:38.690Z,65.25
2023-01-26T09:42:46.064Z,62.53
2023-01-26T09:45:13.008Z,65.93
2023-01-26T09:48:04.505Z,63.33
2023-01-26T09:50:37.834Z,48.38
2023-01-26T09:53:11.093Z,55.42
2023-01-26T09:55:37.967Z,51.58
2023-01-26T09:58:14.555Z,53.42
2023-01-26T10:00:51.737Z,48.72
2023-01-26T10:03:53.794Z,51.33
2023-01-26T10:06:31.305Z,46.63
2023-01-26T10:09:01.675Z,48.75
2023-01-26T10:11:38.322Z,47.70
2023-01-26T10:14:14.269Z,44.90
2023-01-26T10:16:44.093Z,52.42
2023-01-26T10:19:21.983Z,53.72
2023-01-26T10:21:51.433Z,46.30
2023-01-26T10:24:22.235Z,51.72
2023-01-26T10:26:50.664Z,54.90
2023-01-26T10:31:44.701Z,48.25
2023-01-26T10:34:17.949Z,49.53
2023-01-26T10:36:46.103Z,52.20
2023-01-26T10:39:16.972Z,47.33
2023-01-26T10:42:00.998Z,40.90
2023-01-26T10:44:38.820Z,46.05
2023-01-26T10:47:19.852Z,44.22
2023-01-26T10:49:46.557Z,48.80
2023-01-26T10:52:22.163Z,50.65
2023-01-26T10:54:49.750Z,45.80
2023-01-26T10:57:29.331Z,44.33
2023-01-26T11:00:00.964Z,45.92
2023-01-26T11:02:29.541Z,46.60
2023-01-26T11:05:09.428Z,43.70
2023-01-26T11:07:38.685Z,49.92
2023-01-26T11:10:26.886Z,48.90
2023-01-26T11:13:17.763Z,42.67
2023-01-26T11:15:48.610Z,43.13
2023-01-26T11:18:37.990Z,40.35
2023-01-26T11:21:18.966Z,35.95
2023-01-26T11:23:51.649Z,39.70
2023-01-26T11:26:30.713Z,38.30
2023-01-26T11:28:59.988Z,32.33
2023-01-26T11:31:33.015Z,38.40
2023-01-26T11:34:20.999Z,40.83
2023-01-26T11:37:07.907Z,33.55
2023-01-26T11:40:15.935Z,40.55
2023-01-26T11:43:13.577Z,34.15
2023-01-26T11:45:46.358Z,33.70
2023-01-26T11:48:38.986Z,34.42
2023-01-26T11:51:24.525Z,42.28
2023-01-26T11:54:12.907Z,35.53
2023-01-26T11:56:50.050Z,35.78
2023-01-26T11:59:25.456Z,31.27
2023-01-26T12:02:05.229Z,37.65
2023-01-26T12:04:34.192Z,37.67
2023-01-26T12:07:13.252Z,40.33
2023-01-26T12:09:43.595Z,42.45
2023-01-26T12:12:40.359Z,39.90
2023-01-26T12:15:19.586Z,45.50
2023-01-26T12:18:09.848Z,34.30
2023-01-26T12:20:41.619Z,33.70
2023-01-26T12:23:08.116Z,31.70
2023-01-26T12:25:35.946Z,33.55
2023-01-26T12:28:10.831Z,32.42
2023-01-26T12:30:48.998Z,31.00
2023-01-26T12:33:16.026Z,34.22
2023-01-26T12:36:00.029Z,30.77
2023-01-26T12:38:38.897Z,31.25
2023-01-26T12:41:34.809Z,28.08
2023-01-26T12:44:38.650Z,33.95
2023-01-26T12:47:19.931Z,33.00
2023-01-26T12:49:50.514Z,31.75
2023-01-26T12:52:22.398Z,23.98
2023-01-26T12:55:04.079Z,23.92
2023-01-26T12:57:38.981Z,21.42
2023-01-26T13:00:17.572Z,24.13
2023-01-26T13:02:47.207Z,20.52
2023-01-26T13:05:54.509Z,18.40
2023-01-26T13:08:30.239Z,15.80
2023-01-26T13:11:01.138Z,16.15
2023-01-26T13:13:29.926Z,15.32
2023-01-26T13:16:15.578Z,16.63
2023-01-26T13:18:49.112Z,13.88
2023-01-26T13:21:29.210Z,12.30
2023-01-26T13:23:55.973Z,15.23
2023-01-26T13:26:26.063Z,14.13
2023-01-26T13:28:53.542Z,15.02
2023-01-26T13:31:40.436Z,15.50
2023-01-26T13:34:08.889Z,15.02
2023-01-26T13:36:37.237Z,15.55
2023-01-26T13:39:13.096Z,17.38
2023-01-26T13:41:47.600Z,24.75
2023-01-26T13:44:24.103Z,24.27
2023-01-26T13:47:00.346Z,17.80
2023-01-26T13:49:45.101Z,18.98
2023-01-26T13:52:30.028Z,22.38
2023-01-26T13:55:00.377Z,25.90
2023-01-26T13:57:29.227Z,20.90
2023-01-26T13:59:57.493Z,19.67
2023-01-26T14:02:25.653Z,20.55
2023-01-26T14:04:58.086Z,16.67
2023-01-26T14:07:44.936Z,24.63
2023-01-26T14:10:22.789Z,24.13
2023-01-26T14:12:52.444Z,21.30
2023-01-26T14:15:29.719Z,26.10
2023-01-26T14:17:59.235Z,21.67
2023-01-26T14:20:27.291Z,24.48
2023-01-26T14:23:23.451Z,39.58
2023-01-26T14:26:26.006Z,20.50
2023-01-26T14:28:52.587Z,19.23
2023-01-26T14:31:22.269Z,23.60
2023-01-26T14:33:55.976Z,17.67
2023-01-26T14:36:22.957Z,30.83
2023-01-26T14:38:51.888Z,37.38
2023-01-26T14:41:33.702Z,25.38
2023-01-26T14:44:05.960Z,23.55
2023-01-26T14:46:50.907Z,23.65
2023-01-26T14:49:43.567Z,25.25
2023-01-26T14:52:21.273Z,21.08
2023-01-26T14:54:50.076Z,22.40
2023-01-26T14:57:18.950Z,24.45
2023-01-26T14:59:48.662Z,20.30
2023-01-26T15:02:24.437Z,23.33
2023-01-26T15:05:01.440Z,19.65
2023-01-26T15:07:33.329Z,37.55
2023-01-26T15:10:00.246Z,41.03
2023-01-26T15:12:27.454Z,31.42
2023-01-26T15:15:01.072Z,29.58
2023-01-26T15:17:30.542Z,35.65
2023-01-26T15:19:57.157Z,30.40
2023-01-26T15:22:25.756Z,35.55
2023-01-26T15:25:26.293Z,35.58
2023-01-26T15:27:58.278Z,23.90
2023-01-26T15:30:29.169Z,22.23
2023-01-26T15:32:55.939Z,20.65
2023-01-26T15:35:30.344Z,25.17
2023-01-26T15:38:11.714Z,31.92
2023-01-26T15:40:38.798Z,27.35
2023-01-26T15:43:16.407Z,21.73
2023-01-26T15:45:54.493Z,20.90
2023-01-26T15:48:21.970Z,28.05
2023-01-26T15:50:48.791Z,25.85
2023-01-26T15:53:17.038Z,17.63
2023-01-26T15:55:44.390Z,39.47
2023-01-26T15:58:11.306Z,21.67
2023-01-26T16:00:38.928Z,23.52
2023-01-26T16:03:12.220Z,22.77
2023-01-26T16:05:38.786Z,29.20
2023-01-26T16:08:05.512Z,28.17
2023-01-26T16:10:32.055Z,21.88
2023-01-26T16:12:58.622Z,21.60
2023-01-26T16:15:51.511Z,27.63
2023-01-26T16:18:19.453Z,23.95
2023-01-26T16:20:48.100Z,23.17
2023-01-26T16:23:22.913Z,30.38
2023-01-26T16:25:50.085Z,21.63
2023-01-26T16:28:17.261Z,22.33
2023-01-26T16:30:45.060Z,23.00
2023-01-26T16:33:16.519Z,19.80
2023-01-26T16:35:43.598Z,17.20
2023-01-26T16:38:13.226Z,25.77
2023-01-26T16:40:44.958Z,25.80
2023-01-26T16:43:24.131Z,32.25
2023-01-26T16:45:51.949Z,31.00
2023-01-26T16:48:18.561Z,25.17
2023-01-26T16:50:45.584Z,18.20
2023-01-26T16:53:19.230Z,24.27
2023-01-26T16:55:45.847Z,21.52
2023-01-26T16:58:12.485Z,38.75
2023-01-26T17:00:39.252Z,26.65
2023-01-26T17:03:06.591Z,40.92
2023-01-26T17:05:33.236Z,32.03
2023-01-26T17:07:59.785Z,30.85
2023-01-26T17:10:26.381Z,34.35
2023-01-26T17:12:53.059Z,48.53
2023-01-26T17:15:19.724Z,52.72
2023-01-26T17:17:49.136Z,42.15
2023-01-26T17:20:19.786Z,53.75
2023-01-26T17:22:47.408Z,40.90
2023-01-26T17:25:16.789Z,40.03
2023-01-26T17:27:44.910Z,38.15
2023-01-26T17:30:12.060Z,36.13
2023-01-26T17:32:38.661Z,35.58
2023-01-26T17:35:05.557Z,39.22
2023-01-26T17:37:32.156Z,36.10
2023-01-26T17:39:58.723Z,30.60
2023-01-26T17:42:25.841Z,36.08
2023-01-26T17:44:52.581Z,42.20
2023-01-26T17:47:19.153Z,39.97
2023-01-26T17:49:45.764Z,35.95
2023-01-26T17:52:14.372Z,37.13
2023-01-26T17:54:41.276Z,32.10
2023-01-26T17:57:08.503Z,30.98
2023-01-26T17:59:35.203Z,34.67
2023-01-26T18:02:01.970Z,31.13
2023-01-26T18:04:31.171Z,28.48
2023-01-26T18:06:58.121Z,29.63
2023-01-26T18:09:25.064Z,27.95
2023-01-26T18:11:51.624Z,28.73
2023-01-26T18:14:18.298Z,32.05
2023-01-26T18:16:44.974Z,35.35
2023-01-26T18:19:11.673Z,29.65
2023-01-26T18:21:38.432Z,24.95
2023-01-26T18:24:05.961Z,33.53
2023-01-26T18:26:37.077Z,34.87
2023-01-26T18:29:05.152Z,26.75
2023-01-26T18:31:34.469Z,29.33
2023-01-26T18:34:03.195Z,27.58
2023-01-26T18:36:30.590Z,35.05
2023-01-26T18:38:59.898Z,31.45
2023-01-26T18:41:27.701Z,36.28
2023-01-26T18:43:57.979Z,28.75
2023-01-26T18:46:27.295Z,23.65
2023-01-26T18:48:54.889Z,28.35
2023-01-26T18:51:22.645Z,27.03
2023-01-26T18:53:49.530Z,30.45
2023-01-26T18:56:17.018Z,27.02
2023-01-26T18:58:44.094Z,30.13
2023-01-26T19:01:13.205Z,129.27
2023-01-26T19:03:48.671Z,42.88
2023-01-26T19:06:19.717Z,30.20
2023-01-26T19:08:48.143Z,28.70
2023-01-26T19:13:43.293Z,30.95
2023-01-26T19:16:10.172Z,21.42
2023-01-26T19:18:36.914Z,27.48
2023-01-26T19:21:04.599Z,25.02
2023-01-26T19:23:32.249Z,26.33
2023-01-26T19:26:00.288Z,30.30
2023-01-26T19:28:26.890Z,25.75
2023-01-26T19:31:02.337Z,25.13
2023-01-26T19:33:29.170Z,21.30
2023-01-26T19:35:56.619Z,31.45
2023-01-26T19:38:23.651Z,24.40
2023-01-26T19:40:51.724Z,26.55
2023-01-26T19:43:19.172Z,28.08
2023-01-26T19:45:49.832Z,20.48
2023-01-26T19:48:16.671Z,25.75
2023-01-26T19:50:43.306Z,18.75
2023-01-26T19:53:10.005Z,18.88
2023-01-26T19:55:36.805Z,22.70
2023-01-26T19:58:03.374Z,14.23
2023-01-26T20:00:29.909Z,17.95
2023-01-26T20:02:56.455Z,17.35
2023-01-26T20:05:23.038Z,17.73
2023-01-26T20:07:49.633Z,19.13
2023-01-26T20:10:16.643Z,19.20
2023-01-26T20:12:43.236Z,17.45
2023-01-26T20:15:10.732Z,21.92
2023-01-26T20:17:37.456Z,21.75
2023-01-26T20:20:04.504Z,24.90
2023-01-26T20:22:33.617Z,20.70
2023-01-26T20:25:00.817Z,16.92
2023-01-26T20:27:29.314Z,20.63
2023-01-26T20:29:56.227Z,17.40
2023-01-26T20:32:22.995Z,17.52
2023-01-26T20:34:49.845Z,11.48
2023-01-26T20:37:16.448Z,20.02
2023-01-26T20:39:46.001Z,13.35
2023-01-26T20:42:16.594Z,14.18
2023-01-26T20:44:43.529Z,11.93
2023-01-26T20:47:10.258Z,15.02
2023-01-26T20:49:37.427Z,13.60
2023-01-26T20:52:07.875Z,17.38
2023-01-26T20:54:35.742Z,16.58
2023-01-26T20:57:03.735Z,14.13
2023-01-26T20:59:30.485Z,13.13
2023-01-26T21:01:57.287Z,13.75
2023-01-26T21:04:24.014Z,13.13
2023-01-26T21:06:50.670Z,12.02
2023-01-26T21:09:17.391Z,20.67
2023-01-26T21:11:44.022Z,15.75
2023-01-26T21:14:12.251Z,14.48
2023-01-26T21:16:38.971Z,15.70
2023-01-26T21:19:06.035Z,18.02
2023-01-26T21:21:32.635Z,24.33
2023-01-26T21:23:59.328Z,12.00
2023-01-26T21:26:27.886Z,13.63
2023-01-26T21:28:59.738Z,21.75
2023-01-26T21:31:29.059Z,22.15
2023-01-26T21:33:56.248Z,27.98
2023-01-26T21:36:25.222Z,23.25
2023-01-26T21:38:53.173Z,28.00
2023-01-26T21:41:43.293Z,24.80
2023-01-26T21:44:10.915Z,23.75
2023-01-26T21:46:37.858Z,31.63
2023-01-26T21:49:04.817Z,33.42
2023-01-26T21:51:49.869Z,32.15
2023-01-26T21:54:17.023Z,30.80
2023-01-26T21:56:43.771Z,30.45
2023-01-26T21:59:14.688Z,32.50
2023-01-26T22:01:49.678Z,35.40
2023-01-26T22:04:22.764Z,39.95
2023-01-26T22:06:49.675Z,34.17
2023-01-26T22:09:17.368Z,37.08
2023-01-26T22:11:44.412Z,40.25
2023-01-26T22:14:16.438Z,36.95
2023-01-26T22:16:43.153Z,42.63
2023-01-26T22:19:10.842Z,34.28
2023-01-26T22:21:38.270Z,44.38
2023-01-26T22:24:05.720Z,34.50
2023-01-26T22:26:32.459Z,39.65
2023-01-26T22:28:59.694Z,37.97
2023-01-26T22:31:28.261Z,35.90
2023-01-26T22:33:57.667Z,35.38
2023-01-26T22:36:25.466Z,42.20
2023-01-26T22:38:52.839Z,39.50
2023-01-26T22:41:24.310Z,38.08
2023-01-26T22:43:54.313Z,40.80
2023-01-26T22:46:23.636Z,39.00
2023-01-26T22:48:50.979Z,37.85
2023-01-26T22:51:20.364Z,36.67
2023-01-26T22:53:49.105Z,34.42
2023-01-26T22:56:16.193Z,36.30
2023-01-26T22:58:57.032Z,35.08
2023-01-26T23:01:25.742Z,37.58
2023-01-26T23:03:53.868Z,31.17
2023-01-26T23:06:20.851Z,30.65
2023-01-26T23:08:47.497Z,29.80
2023-01-26T23:11:15.120Z,32.83
2023-01-26T23:13:43.226Z,39.95
2023-01-26T23:16:10.431Z,31.48
2023-01-26T23:18:37.393Z,38.35
2023-01-26T23:21:04.567Z,37.88
2023-01-26T23:23:31.240Z,31.30
2023-01-26T23:25:58.714Z,34.33
2023-01-26T23:28:29.094Z,28.63
2023-01-26T23:30:56.720Z,27.55
2023-01-26T23:33:25.332Z,32.05
2023-01-26T23:35:52.342Z,29.92
2023-01-26T23:38:21.297Z,28.13
2023-01-26T23:40:48.897Z,31.80
2023-01-26T23:43:17.360Z,31.30
2023-01-26T23:45:44.938Z,29.00
2023-01-26T23:48:12.070Z,34.35
2023-01-26T23:50:38.959Z,37.05
2023-01-26T23:53:05.627Z,34.20
2023-01-26T23:55:32.249Z,32.28
2023-01-26T23:57:58.868Z,33.35
